Time;durP1;ratioP1;P1;durP2;ratioP2;P2;SDS_P1;SDS_P2;PMS_P1;PMS_P2;Temp;Humidity;BMP_temperature;BMP_pressure;BME280_temperature;BME280_humidity;BME280_pressure;Samples;Min_cycle;Max_cycle;Signal;HPM_P1;HPM_P2
2022/04/01 00:00:35;;;;;;;23.02;8.38;;;;;;;9.95;100.00;98660.73;1664218;86;21129;-70
2022/04/01 00:03:02;;;;;;;24.35;7.47;;;;;;;9.94;100.00;98639.66;1672325;85;21634;-71
2022/04/01 00:05:29;;;;;;;20.70;8.00;;;;;;;9.92;100.00;98628.23;1719086;79;21484;-69
2022/04/01 00:07:57;;;;;;;26.57;7.90;;;;;;;9.93;100.00;98621.77;1763509;79;20995;-70
2022/04/01 00:10:26;;;;;;;22.13;7.47;;;;;;;9.93;100.00;98617.72;1808121;79;21043;-70
2022/04/01 00:12:55;;;;;;;29.32;7.92;;;;;;;9.92;100.00;98618.78;1785742;79;21571;-70
2022/04/01 00:15:24;;;;;;;20.72;8.03;;;;;;;9.92;100.00;98634.16;1785476;79;21038;-71
2022/04/01 00:17:51;;;;;;;23.20;7.47;;;;;;;9.92;100.00;98616.08;1807610;79;21023;-70
2022/04/01 00:20:21;;;;;;;22.42;7.92;;;;;;;9.92;100.00;98595.83;1810567;79;21055;-69
2022/04/01 00:22:48;;;;;;;22.75;8.28;;;;;;;9.92;100.00;98610.67;1771311;79;21015;-70
2022/04/01 00:25:19;;;;;;;20.37;7.20;;;;;;;9.91;100.00;98616.27;1807785;79;21660;-70
2022/04/01 00:27:47;;;;;;;19.95;7.12;;;;;;;9.90;100.00;98600.59;1807866;79;21547;-70
2022/04/01 00:30:16;;;;;;;24.18;7.58;;;;;;;9.89;100.00;98602.45;1808702;79;21022;-70
2022/04/01 00:32:44;;;;;;;23.20;7.70;;;;;;;9.88;100.00;98611.59;1805763;79;21520;-69
2022/04/01 00:35:11;;;;;;;22.82;7.72;;;;;;;9.90;100.00;98623.55;1787487;79;21042;-70
2022/04/01 00:37:40;;;;;;;23.27;7.60;;;;;;;9.90;100.00;98626.25;1807237;79;21066;-70
2022/04/01 00:40:11;;;;;;;20.75;7.72;;;;;;;9.92;100.00;98624.70;1807616;79;21074;-71
2022/04/01 00:42:40;;;;;;;20.82;8.03;;;;;;;9.91;100.00;98630.59;1786360;79;21045;-71
2022/04/01 00:45:10;;;;;;;18.82;7.90;;;;;;;9.91;100.00;98627.08;1808107;79;21038;-70
2022/04/01 00:47:42;;;;;;;23.15;8.05;;;;;;;9.89;100.00;98613.25;1808129;79;21021;-71
2022/04/01 00:50:11;;;;;;;19.12;7.30;;;;;;;9.88;100.00;98616.17;1807915;79;21047;-70
2022/04/01 00:52:38;;;;;;;21.57;7.00;;;;;;;9.86;100.00;98603.36;1775849;79;21529;-70
2022/04/01 00:55:08;;;;;;;18.92;7.20;;;;;;;9.86;100.00;98597.47;1767587;80;21105;-70
2022/04/01 00:57:36;;;;;;;22.20;7.25;;;;;;;9.87;100.00;98582.92;1767903;81;21527;-70
2022/04/01 01:00:08;;;;;;;22.10;7.60;;;;;;;9.88;100.00;98588.65;1769025;81;21074;-70
2022/04/01 01:02:35;;;;;;;18.25;7.05;;;;;;;9.88;100.00;98580.55;1801269;79;21480;-70
2022/04/01 01:05:05;;;;;;;22.17;7.60;;;;;;;9.89;100.00;98590.83;1767216;81;21019;-70
2022/04/01 01:07:36;;;;;;;20.40;7.80;;;;;;;9.88;100.00;98587.83;1768443;81;21316;-70
2022/04/01 01:10:05;;;;;;;20.27;7.92;;;;;;;9.88;100.00;98590.00;1770361;81;21067;-70
2022/04/01 01:12:33;;;;;;;23.85;7.78;;;;;;;9.86;100.00;98588.02;1767989;81;21502;-69
2022/04/01 01:15:10;;;;;;;21.90;7.60;;;;;;;9.86;100.00;98586.67;1774148;81;21574;-70
2022/04/01 01:17:39;;;;;;;23.45;7.75;;;;;;;9.86;100.00;98585.82;1765078;80;21034;-70
2022/04/01 01:22:48;;;;;;;20.40;7.30;;;;;;;9.86;100.00;98566.92;1714163;83;21050;-71
2022/04/01 01:25:15;;;;;;;23.47;7.72;;;;;;;9.85;100.00;98570.67;1681345;84;21093;-70
2022/04/01 01:27:43;;;;;;;24.18;7.37;;;;;;;9.83;100.00;98569.52;1683641;85;21086;-70
2022/04/01 01:30:11;;;;;;;22.85;7.47;;;;;;;9.84;100.00;98581.14;1679613;85;21128;-71
2022/04/01 01:32:39;;;;;;;19.70;6.80;;;;;;;9.83;100.00;98580.32;1681747;85;21079;-69
2022/04/01 01:35:08;;;;;;;22.25;7.95;;;;;;;9.83;100.00;98580.32;1684307;85;21106;-69
2022/04/01 01:37:35;;;;;;;20.88;7.28;;;;;;;9.83;100.00;98587.07;1684113;85;21103;-70
2022/04/01 01:40:04;;;;;;;23.05;7.10;;;;;;;9.84;100.00;98590.59;1683660;85;21054;-71
2022/04/01 01:42:34;;;;;;;19.77;7.95;;;;;;;9.83;100.00;98583.55;1674738;85;21020;-69
2022/04/01 01:45:05;;;;;;;20.90;7.70;;;;;;;9.82;100.00;98594.02;1682439;85;21078;-70
2022/04/01 01:47:32;;;;;;;25.50;7.53;;;;;;;9.82;100.00;98602.94;1683451;85;21138;-70
2022/04/01 01:55:32;;;;;;;19.42;6.85;;;;;;;9.83;100.00;98574.09;1682086;85;21559;-69
2022/04/01 01:58:00;;;;;;;17.77;7.15;;;;;;;9.82;100.00;98589.44;1687469;84;21058;-70
2022/04/01 02:00:28;;;;;;;18.98;7.33;;;;;;;9.81;100.00;98602.64;1711991;83;21095;-71
2022/04/01 02:02:56;;;;;;;20.02;7.17;;;;;;;9.84;100.00;98602.73;1688483;84;21095;-70
2022/04/01 02:05:24;;;;;;;22.00;7.28;;;;;;;9.85;100.00;98613.87;1696780;83;21057;-70
2022/04/01 02:07:53;;;;;;;21.42;7.60;;;;;;;9.86;100.00;98594.77;1676742;85;21031;-70
2022/04/01 02:10:21;;;;;;;19.85;7.17;;;;;;;9.90;100.00;98592.50;1680119;84;21129;-69
2022/04/01 02:12:49;;;;;;;25.55;7.00;;;;;;;9.90;100.00;98577.66;1654284;85;21086;-70
2022/04/01 02:15:18;;;;;;;20.05;6.47;;;;;;;9.92;100.00;98578.80;1677767;84;21074;-71
2022/04/01 02:17:46;;;;;;;24.77;6.92;;;;;;;9.92;100.00;98582.85;1691846;83;21110;-71
2022/04/01 02:20:14;;;;;;;21.77;7.05;;;;;;;9.95;100.00;98577.02;1755528;81;21086;-70
2022/04/01 02:22:44;;;;;;;21.85;7.62;;;;;;;9.98;100.00;98572.58;1750710;82;21079;-70
2022/04/01 02:25:11;;;;;;;25.52;7.72;;;;;;;10.00;100.00;98565.92;1750765;81;21089;-70
2022/04/01 02:27:38;;;;;;;19.65;6.58;;;;;;;10.04;100.00;98567.73;1743690;81;21081;-70
2022/04/01 02:30:10;;;;;;;22.85;8.10;;;;;;;10.06;100.00;98571.88;1750305;82;21066;-69
2022/04/01 02:32:39;;;;;;;19.10;7.50;;;;;;;10.08;100.00;98576.55;1747265;81;21034;-69
2022/04/01 02:35:11;;;;;;;20.97;7.45;;;;;;;10.13;100.00;98578.66;1746812;82;21030;-71
2022/04/01 02:37:41;;;;;;;22.37;7.37;;;;;;;10.17;100.00;98570.45;1750250;82;21066;-70
2022/04/01 02:40:09;;;;;;;22.07;7.40;;;;;;;10.21;100.00;98573.57;1696387;84;21046;-70
2022/04/01 02:42:37;;;;;;;19.92;7.60;;;;;;;10.24;100.00;98581.27;1683720;85;21050;-71
2022/04/01 02:45:06;;;;;;;24.98;6.92;;;;;;;10.26;100.00;98585.42;1670627;86;21096;-70
2022/04/01 02:47:34;;;;;;;21.23;7.22;;;;;;;10.29;100.00;98581.98;1707106;83;21520;-70
2022/04/01 02:50:01;;;;;;;18.17;6.80;;;;;;;10.29;100.00;98576.59;1685007;85;21559;-70
2022/04/01 02:52:31;;;;;;;22.22;6.95;;;;;;;10.31;100.00;98590.75;1688327;85;21007;-71
2022/04/01 02:54:59;;;;;;;21.68;6.97;;;;;;;10.31;100.00;98587.55;1716120;83;21046;-69
2022/04/01 02:57:27;;;;;;;21.85;7.22;;;;;;;10.30;100.00;98584.48;1702964;84;21037;-70
2022/04/01 02:59:55;;;;;;;19.98;7.08;;;;;;;10.32;100.00;98595.95;1703887;84;21050;-70
2022/04/01 03:02:22;;;;;;;25.27;7.50;;;;;;;10.32;100.00;98589.73;1705108;84;21360;-70
2022/04/01 03:04:50;;;;;;;21.17;7.03;;;;;;;10.30;100.00;98586.37;1694033;84;21017;-69
2022/04/01 03:07:18;;;;;;;24.87;7.00;;;;;;;10.29;100.00;98581.98;1704757;84;21521;-68
2022/04/01 03:09:47;;;;;;;22.70;7.03;;;;;;;10.28;100.00;98578.47;1703248;84;21106;-70
2022/04/01 03:12:19;;;;;;;25.75;7.60;;;;;;;10.26;100.00;98566.51;1684483;84;21045;-70
2022/04/01 03:14:51;;;;;;;21.00;6.67;;;;;;;10.24;100.00;98575.34;1703738;84;21478;-71
2022/04/01 03:17:31;;;;;;;21.73;6.80;;;;;;;10.23;100.00;98579.59;1700281;83;21573;-71
2022/04/01 03:20:01;;;;;;;26.42;7.85;;;;;;;10.18;100.00;98568.07;1702942;83;21120;-71
2022/04/01 03:22:30;;;;;;;22.17;7.12;;;;;;;10.16;100.00;98559.31;1686172;83;21028;-69
2022/04/01 03:24:57;;;;;;;22.58;7.45;;;;;;;10.16;100.00;98566.59;1707603;83;21569;-69
2022/04/01 03:27:26;;;;;;;23.80;7.90;;;;;;;10.15;100.00;98569.82;1705676;83;21031;-71
2022/04/01 03:29:54;;;;;;;22.10;6.90;;;;;;;10.16;100.00;98567.94;1703386;84;21065;-70
2022/04/01 03:32:22;;;;;;;24.55;7.45;;;;;;;10.14;100.00;98573.55;1700315;83;21530;-69
2022/04/01 03:34:50;;;;;;;20.68;6.95;;;;;;;10.14;100.00;98572.72;1703391;84;21558;-69
2022/04/01 03:37:17;;;;;;;22.05;7.10;;;;;;;10.15;100.00;98574.41;1704998;84;21017;-70
2022/04/01 03:39:45;;;;;;;23.15;7.08;;;;;;;10.14;100.00;98577.59;1682298;83;21107;-70
2022/04/01 03:42:14;;;;;;;29.85;8.35;;;;;;;10.14;100.00;98572.72;1705025;83;21014;-70
2022/04/01 03:44:42;;;;;;;30.95;8.85;;;;;;;10.13;100.00;98584.55;1705397;84;21053;-70
2022/04/01 03:47:11;;;;;;;21.52;7.42;;;;;;;10.12;100.00;98572.92;1700355;84;21053;-70
2022/04/01 03:49:52;;;;;;;25.00;7.40;;;;;;;10.14;100.00;98560.05;1683411;84;21060;-70
2022/04/01 03:52:20;;;;;;;26.87;8.15;;;;;;;10.16;100.00;98562.55;1763410;81;21018;-70
2022/04/01 03:54:47;;;;;;;28.23;7.40;;;;;;;10.19;100.00;98549.45;1773708;81;20948;-69
2022/04/01 03:57:16;;;;;;;21.35;6.92;;;;;;;10.20;100.00;98560.59;1765813;81;21527;-71
2022/04/01 04:00:07;;;;;;;40.17;8.15;;;;;;;10.23;100.00;98550.73;1769410;80;21007;-71
2022/04/01 04:02:43;;;;;;;26.80;6.90;;;;;;;10.30;100.00;98545.84;1683404;85;21066;-71
2022/04/01 04:05:11;;;;;;;25.32;7.53;;;;;;;10.33;100.00;98555.75;1683813;84;21043;-70
2022/04/01 04:07:39;;;;;;;21.77;6.35;;;;;;;10.36;100.00;98564.80;1661142;85;21043;-70
2022/04/01 04:10:09;;;;;;;20.77;6.45;;;;;;;10.40;100.00;98569.28;1681652;84;21046;-69
2022/04/01 04:12:46;;;;;;;20.45;7.08;;;;;;;10.46;100.00;98580.59;1623996;88;21072;-70
2022/04/01 04:15:14;;;;;;;34.00;8.08;;;;;;;10.51;100.00;98577.30;1604040;88;21064;-70
2022/04/01 04:17:44;;;;;;;22.45;7.22;;;;;;;10.58;100.00;98580.30;1623995;88;21630;-70
2022/04/01 04:20:33;;;;;;;26.27;8.00;;;;;;;10.62;100.00;98582.07;1600960;89;21634;-70
2022/04/01 04:23:17;;;;;;;22.55;6.75;;;;;;;10.67;100.00;98588.22;1598116;89;21591;-70
2022/04/01 04:26:01;;;;;;;27.80;7.05;;;;;;;10.71;100.00;98575.45;1554694;92;21144;-71
2022/04/01 04:28:34;;;;;;;21.60;6.62;;;;;;;10.76;100.00;98584.27;1554627;92;21086;-70
2022/04/01 04:31:07;;;;;;;26.07;7.05;;;;;;;10.83;100.00;98581.86;1555444;92;21141;-69
2022/04/01 04:33:45;;;;;;;28.23;8.45;;;;;;;10.90;100.00;98597.27;1525684;94;21080;-68
2022/04/01 04:36:16;;;;;;;30.62;8.00;;;;;;;10.96;100.00;98596.42;1489770;95;21087;-70
2022/04/01 04:38:54;;;;;;;22.15;6.37;;;;;;;10.98;100.00;98591.13;1521663;94;21155;-69
2022/04/01 04:41:21;;;;;;;24.72;6.78;;;;;;;11.00;100.00;98612.03;1491459;96;21131;-72
2022/04/01 04:43:50;;;;;;;27.85;7.40;;;;;;;11.02;100.00;98601.02;1520262;94;21613;-70
2022/04/01 04:46:18;;;;;;;24.87;6.97;;;;;;;11.05;100.00;98604.66;1491258;96;21706;-70
2022/04/01 04:48:46;;;;;;;30.43;7.10;;;;;;;11.09;100.00;98608.59;1475040;96;21610;-70
2022/04/01 04:51:14;;;;;;;24.05;6.72;;;;;;;11.12;100.00;98612.74;1534506;93;21107;-72
2022/04/01 04:53:49;;;;;;;24.75;6.95;;;;;;;11.13;100.00;98611.19;1500972;95;21080;-71
2022/04/01 04:56:18;;;;;;;20.92;6.40;;;;;;;11.17;100.00;98617.86;1509228;94;21172;-68
2022/04/01 04:58:47;;;;;;;26.15;6.83;;;;;;;11.23;100.00;98611.30;1527578;94;21073;-68
2022/04/01 05:01:38;;;;;;;19.70;6.58;;;;;;;11.27;100.00;98618.77;1531267;93;21069;-69
2022/04/01 05:04:43;;;;;;;26.95;6.95;;;;;;;11.34;100.00;98614.70;1530014;94;21098;-69
2022/04/01 05:07:37;;;;;;;21.10;6.83;;;;;;;11.44;100.00;98614.26;1589967;89;21089;-70
2022/04/01 05:10:31;;;;;;;22.60;6.33;;;;;;;11.56;100.00;98617.98;1588521;90;21193;-68
2022/04/01 05:13:28;;;;;;;21.75;6.70;;;;;;;11.66;100.00;98611.60;1571603;90;21120;-69
2022/04/01 05:16:05;;;;;;;27.50;7.22;;;;;;;11.73;100.00;98608.88;1588789;90;21128;-68
2022/04/01 05:18:41;;;;;;;21.70;6.40;;;;;;;11.81;100.00;98612.72;1571848;91;21092;-69
2022/04/01 05:21:19;;;;;;;24.20;6.08;;;;;;;11.89;100.00;98617.05;1567422;91;21126;-69
2022/04/01 05:24:00;;;;;;;24.87;6.97;;;;;;;11.93;100.00;98624.58;1573431;90;21097;-70
2022/04/01 05:26:38;;;;;;;25.45;6.97;;;;;;;11.99;100.00;98626.09;1573791;91;21065;-68
2022/04/01 05:29:27;;;;;;;26.97;7.35;;;;;;;12.06;100.00;98638.59;1573390;91;21627;-69
2022/04/01 05:32:05;;;;;;;24.43;7.10;;;;;;;12.13;100.00;98628.55;1570001;91;21157;-70
2022/04/01 05:34:47;;;;;;;23.73;6.40;;;;;;;12.22;100.00;98624.25;1556542;90;21073;-69
2022/04/01 05:37:16;;;;;;;21.40;6.55;;;;;;;12.31;100.00;98632.42;1594764;88;21097;-69
2022/04/01 05:39:48;;;;;;;24.80;6.78;;;;;;;12.40;100.00;98634.36;1628931;87;21062;-67
2022/04/01 05:42:18;;;;;;;24.50;7.12;;;;;;;12.46;100.00;98632.95;1639789;87;21609;-68
2022/04/01 05:45:00;;;;;;;22.17;6.95;;;;;;;12.56;100.00;98631.13;1636995;86;21121;-68
2022/04/01 05:47:31;;;;;;;31.02;13.20;;;;;;;12.61;100.00;98630.48;1633366;87;21586;-70
2022/04/01 05:49:59;;;;;;;31.75;8.38;;;;;;;12.66;100.00;98640.12;1678112;81;21531;-70
2022/04/01 05:52:27;;;;;;;21.40;7.53;;;;;;;12.73;100.00;98621.95;1771160;80;21003;-71
2022/04/01 05:54:55;;;;;;;27.55;7.15;;;;;;;12.79;100.00;98624.30;1768488;80;21034;-69
2022/04/01 05:57:22;;;;;;;28.25;7.45;;;;;;;12.86;100.00;98618.30;1775344;80;21037;-69
2022/04/01 05:59:51;;;;;;;24.35;6.15;;;;;;;12.92;100.00;98625.55;1746320;81;21056;-69
2022/04/01 06:02:39;;;;;;;24.63;6.55;;;;;;;13.07;100.00;98638.80;1762450;81;21058;-70
2022/04/01 06:05:46;;;;;;;24.25;7.00;;;;;;;13.21;100.00;98644.92;1750232;80;21513;-69
2022/04/01 06:08:27;;;;;;;28.02;6.97;;;;;;;13.39;100.00;98648.27;1774862;80;21014;-71
2022/04/01 06:11:16;;;;;;;28.87;6.65;;;;;;;13.53;100.00;98645.71;1773615;80;21025;-70
2022/04/01 06:14:35;;;;;;;20.08;6.60;;;;;;;13.63;100.00;98645.18;1693387;84;21104;-69
2022/04/01 06:17:42;;;;;;;27.75;6.00;;;;;;;13.79;100.00;98650.55;1675582;85;21050;-68
2022/04/01 06:20:10;;;;;;;27.48;7.03;;;;;;;13.95;100.00;98651.83;1665067;85;21273;-69
2022/04/01 06:22:44;;;;;;;40.78;7.30;;;;;;;14.07;100.00;98650.55;1643730;85;21081;-68
2022/04/01 06:25:13;;;;;;;33.13;6.78;;;;;;;14.13;100.00;98634.68;1633912;87;21561;-68
2022/04/01 06:27:51;;;;;;;29.18;6.12;;;;;;;14.13;100.00;98623.30;1637495;87;21598;-69
2022/04/01 06:30:20;;;;;;;29.35;7.47;;;;;;;14.12;100.00;98634.39;1636061;87;21054;-67
2022/04/01 06:33:00;;;;;;;;;;;;;;;14.11;100.00;98621.34;1595243;89;21164;-69
2022/04/01 06:35:35;;;;;;;31.70;7.17;;;;;;;14.14;100.00;98618.14;1600573;89;20136;-68
2022/04/01 06:38:06;;;;;;;25.10;6.15;;;;;;;14.34;100.00;98608.38;1557570;91;21094;-68
2022/04/01 06:41:06;;;;;;;28.00;6.80;;;;;;;14.34;100.00;98608.38;1579210;89;21610;-69
2022/04/01 06:43:36;;;;;;;24.87;6.57;;;;;;;14.41;100.00;98613.20;1502163;95;21201;-68
2022/04/01 06:46:08;;;;;;;35.20;6.90;;;;;;;14.39;100.00;98612.58;1449491;98;21108;-68
2022/04/01 06:48:42;;;;;;;23.65;6.22;;;;;;;14.41;100.00;98609.62;1453142;98;21212;-70
2022/04/01 06:51:12;;;;;;;29.18;7.40;;;;;;;14.49;100.00;98606.59;1501548;94;21149;-68
2022/04/01 06:53:57;;;;;;;22.75;6.83;;;;;;;14.64;100.00;98616.24;1496391;95;21113;-69
2022/04/01 06:56:43;;;;;;;32.42;6.92;;;;;;;14.79;100.00;98590.26;1509624;94;21215;-70
2022/04/01 06:59:12;;;;;;;27.30;6.33;;;;;;;14.86;100.00;98600.22;1508221;94;21169;-70
2022/04/01 07:01:39;;;;;;;25.48;6.53;;;;;;;14.95;100.00;98600.98;1505614;94;21571;-69
2022/04/01 07:04:07;;;;;;;31.33;7.53;;;;;;;15.03;100.00;98582.65;1501774;95;21123;-70
2022/04/01 07:06:36;;;;;;;25.62;8.45;;;;;;;15.05;100.00;98577.28;1511807;95;21130;-69
2022/04/01 07:09:03;;;;;;;29.55;6.83;;;;;;;15.04;100.00;98584.33;1512257;94;21101;-69
2022/04/01 07:11:32;;;;;;;24.32;6.60;;;;;;;15.05;100.00;98596.85;1498546;95;21155;-71
2022/04/01 07:13:59;;;;;;;29.37;6.87;;;;;;;15.02;100.00;98598.70;1520499;94;21140;-70
2022/04/01 07:16:28;;;;;;;24.02;6.65;;;;;;;15.10;100.00;98605.14;1531206;93;21129;-70
2022/04/01 07:18:57;;;;;;;26.05;6.85;;;;;;;15.20;100.00;98609.48;1530148;93;21649;-69
2022/04/01 07:21:26;;;;;;;41.58;8.23;;;;;;;15.28;100.00;98609.64;1519762;94;21707;-69
2022/04/01 07:23:54;;;;;;;29.12;7.37;;;;;;;15.35;100.00;98617.16;1516543;94;21142;-69
2022/04/01 07:26:22;;;;;;;28.40;6.80;;;;;;;15.37;100.00;98602.27;1519220;94;21569;-68
2022/04/01 07:28:50;;;;;;;24.10;6.50;;;;;;;15.50;100.00;98616.70;1527035;94;21215;-68
2022/04/01 07:34:02;;;;;;;24.20;7.12;;;;;;;15.75;100.00;98606.92;1522795;93;21107;-69
2022/04/01 07:36:30;;;;;;;27.20;6.75;;;;;;;15.82;100.00;98588.54;1541687;92;21120;-68
2022/04/01 07:38:58;;;;;;;30.20;7.08;;;;;;;15.90;100.00;98589.54;1560717;90;21110;-69
2022/04/01 07:41:27;;;;;;;25.17;6.80;;;;;;;16.11;100.00;98595.38;1617333;87;21129;-68
2022/04/01 07:43:54;;;;;;;28.98;7.17;;;;;;;16.23;100.00;98587.98;1764644;80;21001;-66
2022/04/01 07:46:22;;;;;;;27.22;7.03;;;;;;;16.40;100.00;98603.59;1780757;80;21054;-69
2022/04/01 07:48:51;;;;;;;24.90;6.65;;;;;;;16.62;100.00;98582.70;1751457;80;21061;-68
2022/04/01 07:51:18;;;;;;;27.48;6.78;;;;;;;16.77;100.00;98582.67;1747900;82;21025;-67
2022/04/01 07:53:45;;;;;;;31.48;7.45;;;;;;;17.00;100.00;98581.20;1750188;82;20982;-68
2022/04/01 07:56:12;;;;;;;29.32;7.03;;;;;;;17.18;100.00;98590.21;1785795;79;21254;-68
2022/04/01 07:58:41;;;;;;;23.10;7.45;;;;;;;17.31;100.00;98574.83;1817805;79;21016;-67
2022/04/01 08:01:08;;;;;;;30.25;7.50;;;;;;;17.35;100.00;98596.48;1784353;79;21002;-68
2022/04/01 08:03:35;;;;;;;28.23;7.75;;;;;;;17.43;100.00;98580.20;1755290;80;21023;-66
2022/04/01 08:06:03;;;;;;;33.08;8.45;;;;;;;17.43;100.00;98566.53;1761193;81;20991;-66
2022/04/01 08:08:31;;;;;;;27.48;7.45;;;;;;;17.48;100.00;98571.26;1769253;80;21059;-67
2022/04/01 08:11:00;;;;;;;29.12;7.40;;;;;;;17.61;100.00;98578.52;1723413;80;21646;-68
2022/04/01 08:13:28;;;;;;;27.40;6.90;;;;;;;17.79;100.00;98576.02;1762876;80;21046;-70
2022/04/01 08:15:55;;;;;;;22.82;7.08;;;;;;;17.94;100.00;98569.97;1742059;81;21014;-70
2022/04/01 08:18:23;;;;;;;28.98;7.70;;;;;;;18.15;100.00;98567.45;1768487;80;21108;-68
2022/04/01 08:20:50;;;;;;;27.35;7.12;;;;;;;18.42;100.00;98562.01;1759057;80;21553;-69
2022/04/01 08:23:19;;;;;;;28.67;7.12;;;;;;;18.72;100.00;98565.58;1769130;80;21034;-68
2022/04/01 08:25:47;;;;;;;29.37;7.95;;;;;;;18.87;100.00;98555.31;1770955;80;21027;-69
2022/04/01 08:28:14;;;;;;;43.68;8.70;;;;;;;19.07;100.00;98551.08;1755177;80;20995;-69
2022/04/01 08:30:42;;;;;;;36.08;7.85;;;;;;;19.27;100.00;98571.78;1763976;80;21558;-72
2022/04/01 08:33:10;;;;;;;38.05;7.87;;;;;;;19.32;100.00;98571.81;1774798;80;21090;-68
2022/04/01 08:35:39;;;;;;;42.85;8.88;;;;;;;19.08;100.00;98567.25;1771413;80;21066;-68
2022/04/01 08:38:06;;;;;;;38.53;7.58;;;;;;;18.97;100.00;98569.09;1781308;80;21518;-69
2022/04/01 08:40:33;;;;;;;28.20;6.75;;;;;;;18.87;100.00;98567.63;1783923;80;21526;-67
2022/04/01 08:43:01;;;;;;;32.25;7.42;;;;;;;18.78;100.00;98558.22;1785614;80;21030;-69
2022/04/01 08:45:28;;;;;;;25.72;6.87;;;;;;;18.89;100.00;98572.86;1779645;80;21073;-69
2022/04/01 08:47:56;;;;;;;24.98;6.83;;;;;;;19.03;100.00;98549.95;1758237;80;21022;-69
2022/04/01 08:50:24;;;;;;;32.53;7.90;;;;;;;19.22;100.00;98551.74;1781121;80;21026;-69
2022/04/01 08:52:51;;;;;;;34.55;7.65;;;;;;;19.28;100.00;98543.82;1779800;80;21557;-68
2022/04/01 08:55:20;;;;;;;31.05;7.22;;;;;;;19.42;100.00;98551.03;1793132;79;21155;-69
2022/04/01 08:57:47;;;;;;;30.97;7.55;;;;;;;19.57;100.00;98536.61;1809490;79;21049;-71
2022/04/01 09:00:19;;;;;;;27.48;6.87;;;;;;;19.55;100.00;98535.50;1807146;79;21015;-71
2022/04/01 09:02:59;;;;;;;24.10;6.28;;;;;;;19.60;100.00;98521.81;1809385;79;21533;-69
2022/04/01 09:05:28;;;;;;;31.15;7.37;;;;;;;19.76;100.00;98525.48;1807734;79;21034;-70
2022/04/01 09:08:04;;;;;;;44.85;8.35;;;;;;;19.83;100.00;98531.54;1807819;79;20983;-70
2022/04/01 09:10:32;;;;;;;30.15;7.45;;;;;;;19.79;100.00;98524.92;1807071;79;21476;-71
2022/04/01 09:12:59;;;;;;;33.48;8.25;;;;;;;19.65;100.00;98538.82;1785232;79;21046;-67
2022/04/01 09:15:40;;;;;;;33.92;8.20;;;;;;;;;;1747767;81;21585;-68
2022/04/01 09:18:07;;;;;;;26.73;7.20;;;;;;;19.71;100.00;98524.88;1767887;80;21524;-67
2022/04/01 09:20:50;;;;;;;26.87;9.35;;;;;;;19.75;100.00;98518.34;1765350;80;21089;-67
2022/04/01 09:23:23;;;;;;;46.08;8.20;;;;;;;19.86;100.00;98520.01;1722797;81;21003;-69
2022/04/01 09:25:51;;;;;;;34.90;7.22;;;;;;;20.13;100.00;98516.80;1766839;80;21017;-66
2022/04/01 09:28:30;;;;;;;28.55;6.72;;;;;;;20.29;100.00;98494.62;1750396;81;21043;-67
2022/04/01 09:31:13;;;;;;;29.05;7.65;;;;;;;20.52;100.00;98503.95;1746364;80;21511;-66
2022/04/01 09:33:47;;;;;;;30.75;7.30;;;;;;;20.68;98.07;98502.88;1753567;80;21040;-66
2022/04/01 09:36:19;;;;;;;35.08;7.28;;;;;;;20.78;95.07;98481.47;1724550;81;21523;-67
2022/04/01 09:39:06;;;;;;;35.63;6.70;;;;;;;20.74;95.64;98491.37;1669606;85;21093;-70
2022/04/01 09:41:38;;;;;;;32.05;7.10;;;;;;;20.75;94.47;98498.50;1608487;88;21116;-68
2022/04/01 09:44:22;;;;;;;25.37;6.27;;;;;;;20.90;93.75;98519.09;1586675;88;21099;-67
2022/04/01 09:46:53;;;;;;;35.83;7.17;;;;;;;21.02;93.17;98492.72;1593760;89;22214;-66
2022/04/01 09:49:36;;;;;;;26.57;6.92;;;;;;;21.16;91.98;98504.78;1607613;89;21080;-68
2022/04/01 09:52:09;;;;;;;31.65;7.47;;;;;;;21.22;91.12;98482.22;1601734;88;21632;-67
2022/04/01 09:54:48;;;;;;;28.12;6.47;;;;;;;21.51;90.32;98489.29;1616516;86;21124;-67
2022/04/01 09:57:17;;;;;;;33.00;7.55;;;;;;;21.82;86.63;98480.92;1615005;89;21607;-66
2022/04/01 09:59:46;;;;;;;31.37;7.30;;;;;;;21.90;83.43;98486.38;1592957;89;21157;-68
2022/04/01 10:02:14;;;;;;;33.80;7.78;;;;;;;21.98;83.14;98476.16;1593036;89;21124;-67
2022/04/01 10:04:41;;;;;;;41.80;9.43;;;;;;;22.18;82.49;98499.41;1590069;89;21142;-67
2022/04/01 10:07:09;;;;;;;92.67;12.80;;;;;;;22.36;77.98;98486.96;1591426;87;21081;-67
2022/04/01 10:09:38;;;;;;;41.70;7.10;;;;;;;22.31;77.10;98484.77;1608287;88;21118;-69
2022/04/01 10:12:09;;;;;;;43.33;8.78;;;;;;;22.13;77.10;98476.61;1613129;86;21079;-71
2022/04/01 10:14:38;;;;;;;35.98;8.43;;;;;;;21.98;77.63;98461.84;1592097;89;21101;-70
2022/04/01 10:17:05;;;;;;;40.03;7.97;;;;;;;21.85;78.35;98485.87;1609667;87;21137;-65
2022/04/01 10:19:34;;;;;;;41.05;7.35;;;;;;;21.88;79.13;98472.90;1591543;88;21122;-68
2022/04/01 10:22:01;;;;;;;28.67;6.65;;;;;;;22.02;77.47;98464.84;1610034;89;21054;-67
2022/04/01 10:24:42;;;;;;;39.20;7.80;;;;;;;22.06;78.81;98469.23;1590684;89;21093;-67
2022/04/01 10:27:37;;;;;;;68.78;10.00;;;;;;;22.14;76.33;98476.33;1593096;89;21563;-68
2022/04/01 10:30:07;;;;;;;57.90;9.13;;;;;;;22.12;76.54;98452.40;1614025;89;21124;-69
2022/04/01 10:32:49;;;;;;;40.50;8.65;;;;;;;22.06;75.49;98467.84;1587669;89;21622;-69
2022/04/01 10:35:33;;;;;;;85.57;11.68;;;;;;;21.85;76.42;98462.48;1614376;89;21057;-70
2022/04/01 10:38:12;;;;;;;32.00;7.17;;;;;;;21.71;78.10;98480.16;1625507;87;21254;-72
2022/04/01 10:40:45;;;;;;;42.27;7.53;;;;;;;21.85;77.45;98466.61;1636979;86;21037;-69
2022/04/01 10:43:25;;;;;;;51.73;8.78;;;;;;;21.84;76.58;98481.46;1670227;83;21003;-70
2022/04/01 10:46:06;;;;;;;33.05;7.22;;;;;;;21.73;77.36;98475.19;1689754;83;21085;-67
2022/04/01 10:51:38;;;;;;;49.20;8.93;;;;;;;21.96;76.12;98473.69;1717139;83;21039;-68
2022/04/01 10:54:23;;;;;;;34.25;7.30;;;;;;;21.99;74.86;98477.79;1717142;83;20987;-70
2022/04/01 10:57:08;;;;;;;33.98;7.65;;;;;;;22.12;74.52;98473.61;1690847;84;21019;-71
2022/04/01 10:59:45;;;;;;;32.25;7.45;;;;;;;22.12;73.91;98453.78;1669918;85;21032;-69
2022/04/01 11:02:16;;;;;;;30.90;6.92;;;;;;;22.21;73.85;98444.36;1617235;88;21076;-69
2022/04/01 11:04:44;;;;;;;40.60;9.68;;;;;;;22.32;71.86;98462.47;1543868;92;21105;-68
2022/04/01 11:07:23;;;;;;;39.60;9.08;;;;;;;22.38;69.83;98466.00;1526804;93;21633;-69
2022/04/01 11:09:54;;;;;;;34.65;8.58;;;;;;;22.35;69.95;98465.22;1526293;92;21617;-70
2022/04/01 11:12:29;;;;;;;45.17;11.30;;;;;;;22.31;69.41;98446.23;1541293;92;21361;-70
2022/04/01 11:15:19;;;;;;;38.45;9.78;;;;;;;22.23;69.86;98438.57;1552992;91;21128;-70
2022/04/01 11:17:58;;;;;;;37.13;8.90;;;;;;;22.21;69.34;98429.78;1533335;93;21120;-71
2022/04/01 11:20:27;;;;;;;72.37;10.75;;;;;;;22.30;68.60;98430.27;1533003;93;21136;-70
2022/04/01 11:23:00;;;;;;;40.50;8.05;;;;;;;22.36;67.13;98433.27;1542780;93;21622;-71
2022/04/01 11:25:35;;;;;;;37.05;7.22;;;;;;;22.22;67.61;98425.91;1539338;93;21092;-70
2022/04/01 11:28:08;;;;;;;35.48;7.65;;;;;;;22.19;67.88;98443.83;1541316;93;21085;-69
2022/04/01 11:30:43;;;;;;;48.42;8.60;;;;;;;22.22;67.47;98423.15;1539936;92;21120;-70
2022/04/01 11:33:16;;;;;;;36.88;7.87;;;;;;;22.26;66.35;98404.41;1527584;92;21125;-69
2022/04/01 11:35:53;;;;;;;76.95;10.23;;;;;;;22.17;67.10;98429.53;1535677;92;21125;-70
2022/04/01 11:38:23;;;;;;;43.73;7.65;;;;;;;22.11;66.61;98421.03;1537048;91;21142;-71
2022/04/01 11:40:53;;;;;;;35.38;7.70;;;;;;;21.94;67.57;98409.87;1534636;93;21581;-70
2022/04/01 11:43:21;;;;;;;36.70;7.53;;;;;;;21.96;68.68;98439.30;1536361;93;21081;-70
2022/04/01 11:46:07;;;;;;;40.28;7.47;;;;;;;22.11;67.22;98443.86;1534570;93;21135;-70
2022/04/01 11:48:39;;;;;;;42.65;8.98;;;;;;;22.16;65.81;98403.92;1534754;92;21077;-69
2022/04/01 11:51:15;;;;;;;36.83;7.47;;;;;;;22.04;65.72;98434.30;1436773;100;21142;-69
2022/04/01 11:53:52;;;;;;;61.77;9.70;;;;;;;21.98;66.37;98428.81;1436588;99;21192;-70
2022/04/01 11:56:22;;;;;;;150.25;16.32;;;;;;;22.06;65.76;98412.81;1418790;100;21615;-71
2022/04/01 11:59:01;;;;;;;36.10;7.75;;;;;;;22.00;65.39;98407.34;1437664;98;21081;-69